Time,TemperatureF,DewpointF,PressureIn,WindDirection,WindDirectionDegrees,WindSpeedMPH,WindSpeedGustMPH,Humidity,HourlyPrecipIn,Conditions,Clouds,dailyrainin,SolarRadiationWatts/m^2,SoftwareType,DateUTC
2013-03-16 00:01:00,49.8,44.5,30.08,WNW,299,0.0,2.0,82,0.00,,,0.00,0,Wunderground v.1.15,2013-03-16 07:01:00,
2013-03-16 00:07:00,49.5,44.2,30.08,WNW,299,0.0,2.0,82,0.00,,,0.00,0,Wunderground v.1.15,2013-03-16 07:07:00,
2013-03-16 00:13:00,49.3,44.0,30.07,WNW,299,0.0,1.0,82,0.00,,,0.00,0,Wunderground v.1.15,2013-03-16 07:13:00,
2013-03-16 00:19:00,49.1,44.2,30.07,WNW,299,0.0,1.0,83,0.00,,,0.00,0,Wunderground v.1.15,2013-03-16 07:19:00,
2013-03-16 00:25:00,49.0,44.1,30.07,WNW,299,0.0,1.0,83,0.00,,,0.00,0,Wunderground v.1.15,2013-03-16 07:25:00,
2013-03-16 00:33:00,48.7,44.1,30.07,WNW,299,0.0,1.0,84,0.00,,,0.00,0,Wunderground v.1.15,2013-03-16 07:33:00,
2013-03-16 00:39:00,48.5,43.9,30.07,WNW,299,0.0,1.0,84,0.00,,,0.00,0,Wunderground v.1.15,2013-03-16 07:39:00,
2013-03-16 00:45:00,48.4,43.8,30.07,WNW,299,0.0,1.0,84,0.00,,,0.00,0,Wunderground v.1.15,2013-03-16 07:45:00,
2013-03-16 00:51:00,48.2,43.6,30.07,WNW,299,0.0,1.0,84,0.00,,,0.00,0,Wunderground v.1.15,2013-03-16 07:51:00,
2013-03-16 00:57:00,48.1,43.5,30.07,WNW,299,0.0,1.0,84,0.00,,,0.00,0,Wunderground v.1.15,2013-03-16 07:57:00,
2013-03-16 01:03:00,47.9,43.3,30.06,WNW,299,0.0,3.0,84,0.00,,,0.00,0,Wunderground v.1.15,2013-03-16 08:03:00,
2013-03-16 01:09:00,47.8,43.5,30.06,WNW,299,0.0,3.0,85,0.00,,,0.00,0,Wunderground v.1.15,2013-03-16 08:09:00,
2013-03-16 01:15:00,47.6,43.3,30.06,WNW,299,0.0,3.0,85,0.00,,,0.00,0,Wunderground v.1.15,2013-03-16 08:15:00,
2013-03-16 01:21:00,47.3,43.0,30.06,WNW,299,0.0,3.0,85,0.00,,,0.00,0,Wunderground v.1.15,2013-03-16 08:21:00,
2013-03-16 01:27:00,47.0,42.7,30.06,WNW,299,0.0,3.0,85,0.00,,,0.00,0,Wunderground v.1.15,2013-03-16 08:27:00,
2013-03-16 01:33:00,46.9,42.6,30.06,WNW,299,0.0,3.0,85,0.00,,,0.00,0,Wunderground v.1.15,2013-03-16 08:33:00,
2013-03-16 01:39:00,46.8,42.8,30.06,WNW,299,0.0,3.0,86,0.00,,,0.00,0,Wunderground v.1.15,2013-03-16 08:39:00,
2013-03-16 01:45:00,46.7,42.7,30.07,WNW,299,0.0,3.0,86,0.00,,,0.00,0,Wunderground v.1.15,2013-03-16 08:45:00,
2013-03-16 01:51:00,46.5,42.5,30.07,WNW,299,0.0,3.0,86,0.00,,,0.00,0,Wunderground v.1.15,2013-03-16 08:51:00,
2013-03-16 01:57:00,46.4,42.4,30.07,WNW,299,0.0,3.0,86,0.00,,,0.00,0,Wunderground v.1.15,2013-03-16 08:57:00,
2013-03-16 02:04:00,46.2,42.5,30.08,WNW,299,0.0,1.0,87,0.00,,,0.00,0,Wunderground v.1.15,2013-03-16 09:04:00,
2013-03-16 02:09:00,46.1,42.4,30.08,WNW,299,0.0,1.0,87,0.00,,,0.00,0,Wunderground v.1.15,2013-03-16 09:09:00,
2013-03-16 02:15:00,46.0,42.3,30.07,WNW,299,0.0,1.0,87,0.00,,,0.00,0,Wunderground v.1.15,2013-03-16 09:15:00,
2013-03-16 02:21:00,45.8,42.2,30.08,WNW,299,0.0,1.0,87,0.00,,,0.00,0,Wunderground v.1.15,2013-03-16 09:21:00,
2013-03-16 02:27:00,45.6,42.0,30.08,WNW,299,0.0,1.0,87,0.00,,,0.00,0,Wunderground v.1.15,2013-03-16 09:27:00,
2013-03-16 02:33:00,45.5,41.9,30.08,WNW,299,0.0,1.0,87,0.00,,,0.00,0,Wunderground v.1.15,2013-03-16 09:33:00,
2013-03-16 02:40:00,45.3,41.7,30.08,WNW,299,0.0,1.0,87,0.00,,,0.00,0,Wunderground v.1.15,2013-03-16 09:40:00,
2013-03-16 02:46:00,45.1,41.5,30.07,WNW,299,0.0,1.0,87,0.00,,,0.00,0,Wunderground v.1.15,2013-03-16 09:46:00,
2013-03-16 02:51:00,45.0,41.4,30.07,WNW,299,0.0,1.0,87,0.00,,,0.00,0,Wunderground v.1.15,2013-03-16 09:51:00,
2013-03-16 02:57:00,44.9,41.3,30.07,WNW,299,0.0,1.0,87,0.00,,,0.00,0,Wunderground v.1.15,2013-03-16 09:57:00,
2013-03-16 03:03:00,44.7,41.4,30.07,WNW,299,0.0,1.0,88,0.00,,,0.00,0,Wunderground v.1.15,2013-03-16 10:03:00,
2013-03-16 03:10:00,44.5,41.2,30.07,WNW,299,0.0,1.0,88,0.00,,,0.00,0,Wunderground v.1.15,2013-03-16 10:10:00,
2013-03-16 03:15:00,44.4,41.1,30.07,WNW,299,0.0,1.0,88,0.00,,,0.00,0,Wunderground v.1.15,2013-03-16 10:15:00,
2013-03-16 03:21:00,44.2,40.9,30.07,WNW,299,0.0,1.0,88,0.00,,,0.00,0,Wunderground v.1.15,2013-03-16 10:21:00,
2013-03-16 03:27:00,44.0,40.7,30.07,WNW,299,0.0,1.0,88,0.00,,,0.00,0,Wunderground v.1.15,2013-03-16 10:27:00,
2013-03-16 03:33:00,43.8,40.5,30.07,WNW,299,0.0,1.0,88,0.00,,,0.00,0,Wunderground v.1.15,2013-03-16 10:33:00,
2013-03-16 03:39:00,43.7,40.4,30.06,WNW,299,0.0,1.0,88,0.00,,,0.00,0,Wunderground v.1.15,2013-03-16 10:39:00,
2013-03-16 03:45:00,43.6,40.6,30.06,WNW,299,0.0,1.0,89,0.00,,,0.00,0,Wunderground v.1.15,2013-03-16 10:45:00,
2013-03-16 03:52:00,43.5,40.5,30.06,WNW,299,0.0,1.0,89,0.00,,,0.00,0,Wunderground v.1.15,2013-03-16 10:52:00,
2013-03-16 03:57:00,43.4,40.4,30.05,WNW,299,0.0,1.0,89,0.00,,,0.00,0,Wunderground v.1.15,2013-03-16 10:57:00,
2013-03-16 04:03:00,43.2,40.2,30.06,WNW,299,0.0,1.0,89,0.00,,,0.00,0,Wunderground v.1.15,2013-03-16 11:03:00,
2013-03-16 04:09:00,43.1,40.1,30.07,WNW,299,0.0,1.0,89,0.00,,,0.00,0,Wunderground v.1.15,2013-03-16 11:09:00,
2013-03-16 04:15:00,42.9,39.9,30.07,WNW,299,0.0,1.0,89,0.00,,,0.00,0,Wunderground v.1.15,2013-03-16 11:15:00,
2013-03-16 04:22:00,42.7,39.7,30.06,WNW,299,0.0,1.0,89,0.00,,,0.00,0,Wunderground v.1.15,2013-03-16 11:22:00,
2013-03-16 04:27:00,42.7,39.7,30.07,WNW,299,0.0,1.0,89,0.00,,,0.00,0,Wunderground v.1.15,2013-03-16 11:27:00,
2013-03-16 04:33:00,42.6,39.6,30.07,WNW,299,0.0,1.0,89,0.00,,,0.00,0,Wunderground v.1.15,2013-03-16 11:33:00,
2013-03-16 04:39:00,42.5,39.8,30.07,WNW,299,0.0,1.0,90,0.00,,,0.00,0,Wunderground v.1.15,2013-03-16 11:39:00,
2013-03-16 04:45:00,42.6,39.9,30.07,WNW,299,0.0,1.0,90,0.00,,,0.00,0,Wunderground v.1.15,2013-03-16 11:45:00,
2013-03-16 04:51:00,42.5,39.8,30.06,WNW,299,0.0,1.0,90,0.00,,,0.00,0,Wunderground v.1.15,2013-03-16 11:51:00,
2013-03-16 04:57:00,42.5,39.8,30.06,WNW,299,0.0,1.0,90,0.00,,,0.00,0,Wunderground v.1.15,2013-03-16 11:57:00,
2013-03-16 05:03:00,42.4,39.7,30.07,WNW,299,0.0,2.0,90,0.00,,,0.00,0,Wunderground v.1.15,2013-03-16 12:03:00,
2013-03-16 05:09:00,42.2,39.5,30.06,WNW,299,0.0,2.0,90,0.00,,,0.00,0,Wunderground v.1.15,2013-03-16 12:09:00,
2013-03-16 05:15:00,42.0,39.3,30.06,WNW,299,0.0,2.0,90,0.00,,,0.00,0,Wunderground v.1.15,2013-03-16 12:15:00,
2013-03-16 05:21:00,41.9,39.2,30.06,WNW,299,0.0,2.0,90,0.00,,,0.00,0,Wunderground v.1.15,2013-03-16 12:21:00,
2013-03-16 05:28:00,41.8,39.1,30.05,WNW,299,0.0,2.0,90,0.00,,,0.00,0,Wunderground v.1.15,2013-03-16 12:28:00,
2013-03-16 05:33:00,41.7,39.0,30.05,WNW,299,0.0,2.0,90,0.00,,,0.00,0,Wunderground v.1.15,2013-03-16 12:33:00,
2013-03-16 05:40:00,41.6,38.9,30.05,WNW,299,0.0,2.0,90,0.00,,,0.00,0,Wunderground v.1.15,2013-03-16 12:40:00,
2013-03-16 05:45:00,41.4,38.7,30.05,WNW,299,0.0,2.0,90,0.00,,,0.00,0,Wunderground v.1.15,2013-03-16 12:45:00,
2013-03-16 05:51:00,41.3,38.9,30.05,WNW,299,0.0,2.0,91,0.00,,,0.00,0,Wunderground v.1.15,2013-03-16 12:51:00,
2013-03-16 05:58:00,41.2,38.8,30.06,WNW,299,0.0,2.0,91,0.00,,,0.00,0,Wunderground v.1.15,2013-03-16 12:58:00,
2013-03-16 06:03:00,41.2,38.8,30.05,WNW,299,0.0,1.0,91,0.00,,,0.00,0,Wunderground v.1.15,2013-03-16 13:03:00,
2013-03-16 06:09:00,41.1,38.7,30.05,WNW,299,0.0,1.0,91,0.00,,,0.00,0,Wunderground v.1.15,2013-03-16 13:09:00,
2013-03-16 06:16:00,41.0,38.6,30.06,WNW,299,0.0,1.0,91,0.00,,,0.00,0,Wunderground v.1.15,2013-03-16 13:16:00,
2013-03-16 06:21:00,40.9,38.5,30.06,WNW,299,0.0,1.0,91,0.00,,,0.00,0,Wunderground v.1.15,2013-03-16 13:21:00,
2013-03-16 06:27:00,40.9,38.5,30.06,WNW,299,0.0,1.0,91,0.00,,,0.00,0,Wunderground v.1.15,2013-03-16 13:27:00,
2013-03-16 06:33:00,40.8,38.4,30.07,WNW,299,0.0,1.0,91,0.00,,,0.01,0,Wunderground v.1.15,2013-03-16 13:33:00,
2013-03-16 06:39:00,40.7,38.3,30.07,WNW,299,0.0,1.0,91,0.00,,,0.00,0,Wunderground v.1.15,2013-03-16 13:39:00,
2013-03-16 06:45:00,40.6,38.2,30.07,WNW,299,0.0,1.0,91,0.00,,,0.00,0,Wunderground v.1.15,2013-03-16 13:45:00,
2013-03-16 06:51:00,40.6,38.2,30.07,WNW,299,0.0,1.0,91,0.00,,,0.00,0,Wunderground v.1.15,2013-03-16 13:51:00,
2013-03-16 06:57:00,40.5,38.1,30.07,WNW,299,0.0,1.0,91,0.00,,,0.00,0,Wunderground v.1.15,2013-03-16 13:57:00,
2013-03-16 07:03:00,40.4,38.0,30.08,WNW,299,0.0,1.0,91,0.00,,,0.00,0,Wunderground v.1.15,2013-03-16 14:03:00,
2013-03-16 07:09:00,40.2,37.8,30.08,WNW,299,0.0,1.0,91,0.00,,,0.00,0,Wunderground v.1.15,2013-03-16 14:09:00,
2013-03-16 07:15:00,40.1,37.7,30.08,WNW,299,0.0,1.0,91,0.00,,,0.00,0,Wunderground v.1.15,2013-03-16 14:15:00,
2013-03-16 07:23:00,40.1,38.0,30.08,WNW,299,0.0,1.0,92,0.00,,,0.00,7,Wunderground v.1.15,2013-03-16 14:23:00,
2013-03-16 07:29:00,40.0,37.9,30.09,WNW,299,0.0,1.0,92,0.00,,,0.00,11,Wunderground v.1.15,2013-03-16 14:29:00,
2013-03-16 07:35:00,40.0,37.9,30.09,WNW,299,0.0,1.0,92,0.00,,,0.00,16,Wunderground v.1.15,2013-03-16 14:35:00,
2013-03-16 07:41:00,39.9,37.8,30.08,WNW,299,0.0,1.0,92,0.00,,,0.00,19,Wunderground v.1.15,2013-03-16 14:41:00,
2013-03-16 07:48:00,39.9,37.8,30.09,WNW,299,0.0,1.0,92,0.00,,,0.00,25,Wunderground v.1.15,2013-03-16 14:48:00,
2013-03-16 07:53:00,39.8,37.7,30.08,WNW,299,0.0,1.0,92,0.00,,,0.00,44,Wunderground v.1.15,2013-03-16 14:53:00,
2013-03-16 07:59:00,40.0,37.9,30.08,WNW,299,0.0,1.0,92,0.00,,,0.00,58,Wunderground v.1.15,2013-03-16 14:59:00,
2013-03-16 08:05:00,40.2,38.1,30.09,WNW,299,0.0,1.0,92,0.00,,,0.00,72,Wunderground v.1.15,2013-03-16 15:05:00,
2013-03-16 08:11:00,40.7,38.8,30.09,WNW,299,0.0,1.0,93,0.00,,,0.00,65,Wunderground v.1.15,2013-03-16 15:11:00,
2013-03-16 08:17:00,41.3,39.4,30.08,WNW,299,0.0,1.0,93,0.00,,,0.00,107,Wunderground v.1.15,2013-03-16 15:17:00,
2013-03-16 08:23:00,41.8,39.9,30.09,WNW,300,0.0,1.0,93,0.00,,,0.00,137,Wunderground v.1.15,2013-03-16 15:23:00,
2013-03-16 08:29:00,42.4,40.5,30.09,WNW,299,0.0,1.0,93,0.00,,,0.00,163,Wunderground v.1.15,2013-03-16 15:29:00,
2013-03-16 08:35:00,43.1,41.2,30.10,WNW,299,0.0,1.0,93,0.00,,,0.00,176,Wunderground v.1.15,2013-03-16 15:35:00,
2013-03-16 08:41:00,43.9,42.3,30.10,WNW,300,0.0,1.0,94,0.00,,,0.00,165,Wunderground v.1.15,2013-03-16 15:41:00,
2013-03-16 08:47:00,44.9,43.3,30.09,WNW,299,0.0,1.0,94,0.00,,,0.00,213,Wunderground v.1.15,2013-03-16 15:47:00,
2013-03-16 08:53:00,45.6,44.0,30.09,WNW,299,0.0,1.0,94,0.00,,,0.00,232,Wunderground v.1.15,2013-03-16 15:53:00,
2013-03-16 09:00:00,46.7,45.1,30.09,WNW,299,0.0,2.0,94,0.00,,,0.00,253,Wunderground v.1.15,2013-03-16 16:00:00,
2013-03-16 09:06:00,47.8,46.2,30.09,WNW,299,0.0,2.0,94,0.00,,,0.00,271,Wunderground v.1.15,2013-03-16 16:06:00,
2013-03-16 09:11:00,48.7,47.1,30.09,WNW,299,0.0,2.0,94,0.00,,,0.00,290,Wunderground v.1.15,2013-03-16 16:11:00,
2013-03-16 09:17:00,49.6,47.9,30.09,WNW,300,0.0,2.0,94,0.00,,,0.00,315,Wunderground v.1.15,2013-03-16 16:17:00,
2013-03-16 09:23:00,50.8,49.1,30.09,WNW,299,0.0,2.0,94,0.00,,,0.00,341,Wunderground v.1.15,2013-03-16 16:23:00,
2013-03-16 09:29:00,52.1,49.8,30.09,WNW,299,0.0,2.0,92,0.00,,,0.00,359,Wunderground v.1.15,2013-03-16 16:29:00,
2013-03-16 09:35:00,53.2,50.0,30.09,WNW,299,0.0,2.0,89,0.00,,,0.00,381,Wunderground v.1.15,2013-03-16 16:35:00,
2013-03-16 09:41:00,54.1,48.7,30.09,WNW,300,1.0,2.0,82,0.00,,,0.00,401,Wunderground v.1.15,2013-03-16 16:41:00,
2013-03-16 09:47:00,55.2,48.5,30.10,NW,325,2.0,4.0,78,0.00,,,0.00,420,Wunderground v.1.15,2013-03-16 16:47:00,
2013-03-16 09:53:00,56.2,48.0,30.10,North,11,2.0,3.0,74,0.00,,,0.00,439,Wunderground v.1.15,2013-03-16 16:53:00,
2013-03-16 10:00:00,57.1,47.0,30.09,NNE,13,2.0,2.0,69,0.00,,,0.00,459,Wunderground v.1.15,2013-03-16 17:00:00,
2013-03-16 10:05:00,58.1,47.2,30.09,ENE,62,1.0,4.0,67,0.00,,,0.00,473,Wunderground v.1.15,2013-03-16 17:05:00,
2013-03-16 10:11:00,58.7,46.5,30.09,NNE,17,1.0,3.0,64,0.00,,,0.00,492,Wunderground v.1.15,2013-03-16 17:11:00,
2013-03-16 10:17:00,59.6,47.0,30.10,NW,318,1.0,3.0,63,0.00,,,0.00,508,Wunderground v.1.15,2013-03-16 17:17:00,
2013-03-16 10:23:00,60.1,47.0,30.11,West,275,3.0,5.0,62,0.00,,,0.00,527,Wunderground v.1.15,2013-03-16 17:23:00,
2013-03-16 10:30:00,60.4,46.9,30.11,NW,319,3.0,7.0,61,0.00,,,0.00,554,Wunderground v.1.15,2013-03-16 17:30:00,
2013-03-16 10:35:00,60.7,46.3,30.12,WNW,292,3.0,7.0,59,0.00,,,0.00,540,Wunderground v.1.15,2013-03-16 17:35:00,
2013-03-16 10:41:00,61.1,46.2,30.12,NW,323,5.0,10.0,58,0.00,,,0.00,566,Wunderground v.1.15,2013-03-16 17:41:00,
2013-03-16 10:47:00,61.2,46.8,30.12,NNW,327,6.0,10.0,59,0.00,,,0.00,584,Wunderground v.1.15,2013-03-16 17:47:00,
2013-03-16 10:53:00,61.6,46.7,30.12,WNW,286,5.0,7.0,58,0.00,,,0.00,610,Wunderground v.1.15,2013-03-16 17:53:00,
2013-03-16 10:59:00,61.6,47.1,30.12,WSW,240,5.0,12.0,59,0.00,,,0.00,622,Wunderground v.1.15,2013-03-16 17:59:00,
2013-03-16 11:05:00,62.0,47.5,30.12,WNW,285,4.0,12.0,59,0.00,,,0.00,599,Wunderground v.1.15,2013-03-16 18:05:00,
2013-03-16 11:13:00,62.3,47.3,30.12,NNW,340,4.0,12.0,58,0.00,,,0.00,645,Wunderground v.1.15,2013-03-16 18:13:00,
2013-03-16 11:19:00,62.8,46.9,30.12,WNW,293,4.0,4.0,56,0.00,,,0.00,664,Wunderground v.1.15,2013-03-16 18:19:00,
2013-03-16 11:25:00,63.1,46.7,30.11,NNW,330,3.0,12.0,55,0.00,,,0.00,679,Wunderground v.1.15,2013-03-16 18:25:00,
2013-03-16 11:31:00,63.4,47.4,30.10,NNW,327,1.0,12.0,56,0.00,,,0.00,717,Wunderground v.1.15,2013-03-16 18:31:00,
2013-03-16 11:37:00,64.0,47.0,30.10,NNW,338,0.0,12.0,54,0.00,,,0.00,737,Wunderground v.1.15,2013-03-16 18:37:00,
2013-03-16 11:43:00,64.7,47.2,30.10,WNW,296,0.0,12.0,53,0.00,,,0.00,325,Wunderground v.1.15,2013-03-16 18:43:00,
2013-03-16 11:49:00,65.5,47.9,30.09,SE,128,1.0,1.0,53,0.00,,,0.00,540,Wunderground v.1.15,2013-03-16 18:49:00,
2013-03-16 11:55:00,66.0,47.3,30.09,ENE,78,2.0,12.0,51,0.00,,,0.00,722,Wunderground v.1.15,2013-03-16 18:55:00,
2013-03-16 12:01:00,66.5,47.8,30.09,West,263,2.0,11.0,51,0.00,,,0.00,758,Wunderground v.1.15,2013-03-16 19:01:00,
2013-03-16 12:07:00,67.3,46.9,30.09,WSW,256,1.0,11.0,48,0.00,,,0.00,742,Wunderground v.1.15,2013-03-16 19:07:00,
2013-03-16 12:13:00,67.8,46.3,30.09,WNW,290,2.0,11.0,46,0.00,,,0.00,749,Wunderground v.1.15,2013-03-16 19:13:00,
2013-03-16 12:19:00,68.5,45.7,30.09,West,267,3.0,3.0,44,0.00,,,0.00,761,Wunderground v.1.15,2013-03-16 19:19:00,
2013-03-16 12:25:00,68.5,45.1,30.09,WNW,288,4.0,11.0,43,0.00,,,0.00,766,Wunderground v.1.15,2013-03-16 19:25:00,
2013-03-16 12:31:00,68.6,45.2,30.09,North,5,5.0,11.0,43,0.00,,,0.00,770,Wunderground v.1.15,2013-03-16 19:31:00,
2013-03-16 12:37:00,68.8,44.8,30.08,NNW,336,6.0,11.0,42,0.00,,,0.00,775,Wunderground v.1.15,2013-03-16 19:37:00,
2013-03-16 12:43:00,68.9,44.9,30.08,NW,324,5.0,11.0,42,0.00,,,0.00,786,Wunderground v.1.15,2013-03-16 19:43:00,
2013-03-16 12:49:00,69.1,45.7,30.08,West,271,4.0,11.0,43,0.00,,,0.00,805,Wunderground v.1.15,2013-03-16 19:49:00,
2013-03-16 12:55:00,69.3,46.4,30.08,NW,311,3.0,11.0,44,0.00,,,0.00,788,Wunderground v.1.15,2013-03-16 19:55:00,
2013-03-16 13:01:00,69.7,46.2,30.07,WSW,257,3.0,11.0,43,0.00,,,0.00,773,Wunderground v.1.15,2013-03-16 20:01:00,
2013-03-16 13:09:00,70.8,46.6,30.07,WNW,296,2.0,11.0,42,0.00,,,0.00,823,Wunderground v.1.15,2013-03-16 20:09:00,
2013-03-16 13:15:00,71.2,45.6,30.07,NW,304,3.0,11.0,40,0.00,,,0.00,796,Wunderground v.1.15,2013-03-16 20:15:00,
2013-03-16 13:21:00,71.1,45.5,30.07,NW,312,6.0,11.0,40,0.00,,,0.00,772,Wunderground v.1.15,2013-03-16 20:21:00,
2013-03-16 13:27:00,71.2,46.3,30.07,West,273,5.0,11.0,41,0.00,,,0.00,807,Wunderground v.1.15,2013-03-16 20:27:00,
2013-03-16 13:34:00,72.0,46.3,30.07,NNW,341,4.0,11.0,40,0.00,,,0.00,731,Wunderground v.1.15,2013-03-16 20:34:00,
2013-03-16 13:39:00,72.4,46.0,30.07,West,277,5.0,5.0,39,0.00,,,0.00,756,Wunderground v.1.15,2013-03-16 20:39:00,
2013-03-16 13:45:00,72.5,45.4,30.07,WNW,302,4.0,11.0,38,0.00,,,0.00,791,Wunderground v.1.15,2013-03-16 20:45:00,
2013-03-16 13:51:00,72.8,45.7,30.07,NW,318,5.0,5.0,38,0.00,,,0.00,788,Wunderground v.1.15,2013-03-16 20:51:00,
2013-03-16 13:57:00,73.1,46.0,30.07,West,279,5.0,11.0,38,0.00,,,0.00,779,Wunderground v.1.15,2013-03-16 20:57:00,
2013-03-16 14:03:00,73.1,46.0,30.06,WSW,254,4.0,14.0,38,0.00,,,0.00,773,Wunderground v.1.15,2013-03-16 21:03:00,
2013-03-16 14:09:00,73.3,46.2,30.05,WNW,284,4.0,14.0,38,0.00,,,0.00,784,Wunderground v.1.15,2013-03-16 21:09:00,
2013-03-16 14:15:00,73.4,45.5,30.05,WNW,284,5.0,14.0,37,0.00,,,0.00,780,Wunderground v.1.15,2013-03-16 21:15:00,
2013-03-16 14:22:00,73.5,45.6,30.05,WNW,294,5.0,14.0,37,0.00,,,0.00,733,Wunderground v.1.15,2013-03-16 21:22:00,
2013-03-16 14:27:00,73.8,45.2,30.05,NNW,341,4.0,14.0,36,0.00,,,0.00,749,Wunderground v.1.15,2013-03-16 21:27:00,
2013-03-16 14:33:00,74.0,44.6,30.05,West,266,4.0,14.0,35,0.00,,,0.00,403,Wunderground v.1.15,2013-03-16 21:33:00,
2013-03-16 14:39:00,73.9,43.8,30.05,NW,311,5.0,14.0,34,0.00,,,0.00,744,Wunderground v.1.15,2013-03-16 21:39:00,
2013-03-16 14:45:00,74.1,43.9,30.05,NNW,338,6.0,14.0,34,0.00,,,0.00,339,Wunderground v.1.15,2013-03-16 21:45:00,
2013-03-16 14:51:00,73.8,43.7,30.04,WNW,291,6.0,14.0,34,0.00,,,0.00,691,Wunderground v.1.15,2013-03-16 21:51:00,
2013-03-16 14:57:00,73.9,43.8,30.05,WNW,296,5.0,14.0,34,0.00,,,0.00,308,Wunderground v.1.15,2013-03-16 21:57:00,
2013-03-16 15:03:00,73.4,44.1,30.05,West,261,4.0,12.0,35,0.00,,,0.00,385,Wunderground v.1.15,2013-03-16 22:03:00,
2013-03-16 15:09:00,73.7,45.1,30.04,North,355,3.0,12.0,36,0.00,,,0.00,729,Wunderground v.1.15,2013-03-16 22:09:00,
2013-03-16 15:15:00,74.2,47.6,30.04,West,264,4.0,12.0,39,0.00,,,0.00,701,Wunderground v.1.15,2013-03-16 22:15:00,
2013-03-16 15:21:00,74.4,47.1,30.04,West,279,4.0,12.0,38,0.00,,,0.00,691,Wunderground v.1.15,2013-03-16 22:21:00,
2013-03-16 15:27:00,74.7,44.5,30.03,North,355,5.0,12.0,34,0.00,,,0.00,679,Wunderground v.1.15,2013-03-16 22:27:00,
2013-03-16 15:33:00,75.3,44.2,30.03,West,279,5.0,12.0,33,0.00,,,0.00,671,Wunderground v.1.15,2013-03-16 22:33:00,
2013-03-16 15:39:00,75.4,43.5,30.03,NW,311,6.0,6.0,32,0.00,,,0.00,647,Wunderground v.1.15,2013-03-16 22:39:00,
2013-03-16 15:45:00,75.3,40.8,30.03,WNW,292,7.0,14.0,29,0.00,,,0.00,640,Wunderground v.1.15,2013-03-16 22:45:00,
2013-03-16 15:51:00,75.4,40.0,30.03,WNW,302,7.0,12.0,28,0.00,,,0.00,628,Wunderground v.1.15,2013-03-16 22:51:00,
2013-03-16 15:57:00,75.7,40.3,30.03,West,276,6.0,12.0,28,0.00,,,0.00,610,Wunderground v.1.15,2013-03-16 22:57:00,
2013-03-16 16:03:00,75.7,40.3,30.03,WNW,282,7.0,14.0,28,0.00,,,0.00,592,Wunderground v.1.15,2013-03-16 23:03:00,
2013-03-16 16:09:00,75.8,40.4,30.02,NNW,338,7.0,14.0,28,0.00,,,0.00,570,Wunderground v.1.15,2013-03-16 23:09:00,
2013-03-16 16:15:00,75.4,39.1,30.03,NW,317,8.0,14.0,27,0.00,,,0.00,550,Wunderground v.1.15,2013-03-16 23:15:00,
2013-03-16 16:22:00,75.0,37.8,30.02,NW,311,9.0,14.0,26,0.00,,,0.00,543,Wunderground v.1.15,2013-03-16 23:22:00,
2013-03-16 16:27:00,74.9,37.7,30.02,NNW,338,8.0,14.0,26,0.00,,,0.00,540,Wunderground v.1.15,2013-03-16 23:27:00,
2013-03-16 16:33:00,74.8,37.6,30.02,NW,309,8.0,14.0,26,0.00,,,0.00,529,Wunderground v.1.15,2013-03-16 23:33:00,
2013-03-16 16:39:00,74.5,37.3,30.02,NW,320,10.0,14.0,26,0.00,,,0.00,510,Wunderground v.1.15,2013-03-16 23:39:00,
2013-03-16 16:45:00,74.4,38.2,30.02,WNW,288,9.0,14.0,27,0.00,,,0.00,469,Wunderground v.1.15,2013-03-16 23:45:00,
2013-03-16 16:51:00,74.2,39.0,30.02,SW,229,8.0,14.0,28,0.00,,,0.00,434,Wunderground v.1.15,2013-03-16 23:51:00,
2013-03-16 16:57:00,74.0,37.9,30.02,NW,313,8.0,14.0,27,0.00,,,0.00,264,Wunderground v.1.15,2013-03-16 23:57:00,
2013-03-16 17:03:00,73.4,39.2,30.02,NW,324,8.0,21.0,29,0.00,,,0.00,264,Wunderground v.1.15,2013-03-17 00:03:00,
2013-03-16 17:09:00,72.9,38.8,30.02,NNW,348,7.0,21.0,29,0.00,,,0.00,265,Wunderground v.1.15,2013-03-17 00:09:00,
2013-03-16 17:15:00,72.4,39.2,30.02,WNW,288,8.0,21.0,30,0.00,,,0.00,248,Wunderground v.1.15,2013-03-17 00:15:00,
2013-03-16 17:21:00,72.1,38.9,30.02,West,275,8.0,21.0,30,0.00,,,0.00,243,Wunderground v.1.15,2013-03-17 00:21:00,
2013-03-16 17:27:00,71.9,39.6,30.02,NW,314,7.0,21.0,31,0.00,,,0.00,185,Wunderground v.1.15,2013-03-17 00:27:00,
2013-03-16 17:33:00,71.7,39.4,30.02,WNW,288,6.0,21.0,31,0.00,,,0.00,148,Wunderground v.1.15,2013-03-17 00:33:00,
2013-03-16 17:40:00,71.4,39.2,30.02,West,272,6.0,6.0,31,0.00,,,0.00,155,Wunderground v.1.15,2013-03-17 00:40:00,
2013-03-16 17:45:00,71.1,39.7,30.02,NW,304,7.0,21.0,32,0.00,,,0.00,146,Wunderground v.1.15,2013-03-17 00:45:00,
2013-03-16 17:51:00,70.8,40.3,30.02,NNW,327,5.0,21.0,33,0.00,,,0.00,139,Wunderground v.1.15,2013-03-17 00:51:00,
2013-03-16 17:58:00,70.6,39.3,30.02,NW,316,6.0,21.0,32,0.00,,,0.00,125,Wunderground v.1.15,2013-03-17 00:58:00,
2013-03-16 18:03:00,70.3,39.0,30.02,NW,324,7.0,19.0,32,0.00,,,0.00,118,Wunderground v.1.15,2013-03-17 01:03:00,
2013-03-16 18:09:00,69.9,39.5,30.02,NW,316,7.0,19.0,33,0.00,,,0.00,113,Wunderground v.1.15,2013-03-17 01:09:00,
2013-03-16 18:15:00,69.6,39.2,30.02,WNW,302,8.0,19.0,33,0.00,,,0.00,123,Wunderground v.1.15,2013-03-17 01:15:00,
2013-03-16 18:23:00,69.3,38.9,30.03,West,277,7.0,10.0,33,0.00,,,0.00,163,Wunderground v.1.15,2013-03-17 01:23:00,
2013-03-16 18:29:00,69.1,39.5,30.03,NNW,334,8.0,8.0,34,0.00,,,0.00,114,Wunderground v.1.15,2013-03-17 01:29:00,
2013-03-16 18:35:00,69.1,39.5,30.03,NW,307,8.0,19.0,34,0.00,,,0.00,109,Wunderground v.1.15,2013-03-17 01:35:00,
2013-03-16 18:41:00,69.0,39.4,30.03,NW,313,7.0,11.0,34,0.00,,,0.00,76,Wunderground v.1.15,2013-03-17 01:41:00,
2013-03-16 18:47:00,68.8,39.3,30.02,NNW,333,7.0,19.0,34,0.00,,,0.00,62,Wunderground v.1.15,2013-03-17 01:47:00,
2013-03-16 18:53:00,68.6,39.1,30.03,NNW,342,7.0,19.0,34,0.00,,,0.00,40,Wunderground v.1.15,2013-03-17 01:53:00,
2013-03-16 19:00:00,68.3,39.6,30.03,NW,325,6.0,6.0,35,0.00,,,0.00,26,Wunderground v.1.15,2013-03-17 02:00:00,
2013-03-16 19:05:00,67.9,39.9,30.02,NNW,329,5.0,19.0,36,0.00,,,0.00,19,Wunderground v.1.15,2013-03-17 02:05:00,
2013-03-16 19:11:00,67.4,39.5,30.03,NW,324,5.0,12.0,36,0.00,,,0.00,11,Wunderground v.1.15,2013-03-17 02:11:00,
2013-03-16 19:17:00,67.0,39.1,30.03,NW,326,6.0,19.0,36,0.00,,,0.00,5,Wunderground v.1.15,2013-03-17 02:17:00,
2013-03-16 19:23:00,66.5,39.4,30.03,NNW,344,6.0,19.0,37,0.00,,,0.00,0,Wunderground v.1.15,2013-03-17 02:23:00,
2013-03-16 19:29:00,66.1,39.7,30.03,NW,325,6.0,6.0,38,0.00,,,0.00,0,Wunderground v.1.15,2013-03-17 02:29:00,
2013-03-16 19:35:00,65.8,40.1,30.03,NNW,330,6.0,19.0,39,0.00,,,0.00,0,Wunderground v.1.15,2013-03-17 02:35:00,
2013-03-16 19:43:00,65.3,40.3,30.04,WNW,286,4.0,19.0,40,0.00,,,0.00,0,Wunderground v.1.15,2013-03-17 02:43:00,
2013-03-16 19:49:00,64.9,40.0,30.04,NNW,344,4.0,19.0,40,0.00,,,0.00,0,Wunderground v.1.15,2013-03-17 02:49:00,
2013-03-16 19:55:00,64.5,40.3,30.04,NW,321,5.0,19.0,41,0.00,,,0.00,0,Wunderground v.1.15,2013-03-17 02:55:00,
2013-03-16 20:01:00,64.1,40.5,30.05,NNW,338,5.0,15.0,42,0.00,,,0.00,0,Wunderground v.1.15,2013-03-17 03:01:00,
2013-03-16 20:07:00,63.7,40.8,30.05,NNW,328,5.0,15.0,43,0.00,,,0.00,0,Wunderground v.1.15,2013-03-17 03:07:00,
2013-03-16 20:13:00,63.4,40.5,30.05,NW,315,5.0,15.0,43,0.00,,,0.00,0,Wunderground v.1.15,2013-03-17 03:13:00,
2013-03-16 20:19:00,63.0,40.7,30.05,NW,315,5.0,15.0,44,0.00,,,0.00,0,Wunderground v.1.15,2013-03-17 03:19:00,
2013-03-16 20:25:00,62.7,41.0,30.05,NW,316,5.0,15.0,45,0.00,,,0.00,0,Wunderground v.1.15,2013-03-17 03:25:00,
2013-03-16 20:31:00,62.3,41.2,30.06,NW,312,7.0,15.0,46,0.00,,,0.00,0,Wunderground v.1.15,2013-03-17 03:31:00,
2013-03-16 20:37:00,61.9,40.9,30.05,WNW,292,7.0,15.0,46,0.00,,,0.00,0,Wunderground v.1.15,2013-03-17 03:37:00,
2013-03-16 20:43:00,61.5,41.1,30.05,NNW,330,7.0,15.0,47,0.00,,,0.00,0,Wunderground v.1.15,2013-03-17 03:43:00,
2013-03-16 20:49:00,61.3,41.4,30.06,NNW,339,8.0,8.0,48,0.00,,,0.00,0,Wunderground v.1.15,2013-03-17 03:49:00,
2013-03-16 20:55:00,61.1,41.8,30.06,NNW,328,7.0,15.0,49,0.00,,,0.00,0,Wunderground v.1.15,2013-03-17 03:55:00,
2013-03-16 21:01:00,60.9,41.6,30.06,NW,320,8.0,14.0,49,0.00,,,0.00,0,Wunderground v.1.15,2013-03-17 04:01:00,
2013-03-16 21:07:00,60.6,41.8,30.07,NNW,348,8.0,14.0,50,0.00,,,0.00,0,Wunderground v.1.15,2013-03-17 04:07:00,
2013-03-16 21:11:00,60.4,41.7,30.07,NW,317,7.0,14.0,50,0.00,,,0.00,0,Wunderground v.1.15,2013-03-17 04:11:00,
2013-03-16 21:17:00,60.1,41.9,30.08,NNW,335,6.0,14.0,51,0.00,,,0.00,0,Wunderground v.1.15,2013-03-17 04:17:00,
2013-03-16 21:21:00,59.9,42.2,30.08,WNW,301,7.0,12.0,52,0.00,,,0.00,0,Wunderground v.1.15,2013-03-17 04:21:00,
2013-03-16 21:27:00,59.6,41.9,30.09,NW,318,7.0,14.0,52,0.00,,,0.00,0,Wunderground v.1.15,2013-03-17 04:27:00,
2013-03-16 21:33:00,59.3,42.2,30.09,NNW,340,7.0,14.0,53,0.00,,,0.00,0,Wunderground v.1.15,2013-03-17 04:33:00,
2013-03-16 21:39:00,59.1,42.0,30.09,NW,317,7.0,7.0,53,0.00,,,0.00,0,Wunderground v.1.15,2013-03-17 04:39:00,
2013-03-16 21:45:00,58.9,41.8,30.09,WNW,286,8.0,14.0,53,0.00,,,0.00,0,Wunderground v.1.15,2013-03-17 04:45:00,
2013-03-16 21:51:00,58.9,42.3,30.09,NW,305,9.0,14.0,54,0.00,,,0.00,0,Wunderground v.1.15,2013-03-17 04:51:00,
2013-03-16 21:57:00,58.8,42.2,30.09,WNW,294,8.0,14.0,54,0.00,,,0.00,0,Wunderground v.1.15,2013-03-17 04:57:00,
2013-03-16 22:03:00,58.6,42.0,30.09,WNW,302,8.0,14.0,54,0.00,,,0.00,0,Wunderground v.1.15,2013-03-17 05:03:00,
2013-03-16 22:09:00,58.3,42.2,30.09,WNW,290,7.0,14.0,55,0.00,,,0.00,0,Wunderground v.1.15,2013-03-17 05:09:00,
2013-03-16 22:15:00,58.0,41.9,30.09,WNW,294,6.0,14.0,55,0.00,,,0.00,0,Wunderground v.1.15,2013-03-17 05:15:00,
2013-03-16 22:21:00,57.7,42.1,30.10,NW,311,6.0,14.0,56,0.00,,,0.00,0,Wunderground v.1.15,2013-03-17 05:21:00,
2013-03-16 22:27:00,57.5,41.9,30.10,NNW,344,6.0,14.0,56,0.00,,,0.00,0,Wunderground v.1.15,2013-03-17 05:27:00,
2013-03-16 22:33:00,57.4,41.8,30.11,West,267,6.0,14.0,56,0.00,,,0.00,0,Wunderground v.1.15,2013-03-17 05:33:00,
2013-03-16 22:39:00,57.3,42.2,30.11,NW,313,7.0,14.0,57,0.00,,,0.00,0,Wunderground v.1.15,2013-03-17 05:39:00,
2013-03-16 22:45:00,57.2,42.1,30.11,West,277,7.0,14.0,57,0.00,,,0.00,0,Wunderground v.1.15,2013-03-17 05:45:00,
2013-03-16 22:51:00,57.0,41.9,30.11,West,278,5.0,14.0,57,0.00,,,0.00,0,Wunderground v.1.15,2013-03-17 05:51:00,
2013-03-16 22:57:00,56.9,41.8,30.11,NW,322,5.0,14.0,57,0.00,,,0.00,0,Wunderground v.1.15,2013-03-17 05:57:00,
2013-03-16 23:03:00,56.7,41.6,30.11,NW,314,5.0,15.0,57,0.00,,,0.00,0,Wunderground v.1.15,2013-03-17 06:03:00,
2013-03-16 23:09:00,56.6,42.0,30.11,NNW,327,5.0,15.0,58,0.00,,,0.00,0,Wunderground v.1.15,2013-03-17 06:09:00,
2013-03-16 23:15:00,56.5,41.9,30.11,NW,311,6.0,15.0,58,0.00,,,0.00,0,Wunderground v.1.15,2013-03-17 06:15:00,
2013-03-16 23:21:00,56.6,42.0,30.12,NNW,329,6.0,15.0,58,0.00,,,0.00,0,Wunderground v.1.15,2013-03-17 06:21:00,
2013-03-16 23:27:00,56.5,41.9,30.12,NNW,336,6.0,15.0,58,0.00,,,0.00,0,Wunderground v.1.15,2013-03-17 06:27:00,
2013-03-16 23:33:00,56.4,41.8,30.12,NNW,328,4.0,15.0,58,0.00,,,0.00,0,Wunderground v.1.15,2013-03-17 06:33:00,
2013-03-16 23:39:00,56.2,41.6,30.12,NNW,331,3.0,15.0,58,0.00,,,0.00,0,Wunderground v.1.15,2013-03-17 06:39:00,
2013-03-16 23:45:00,56.0,41.4,30.12,West,263,3.0,15.0,58,0.00,,,0.00,0,Wunderground v.1.15,2013-03-17 06:45:00,
2013-03-16 23:51:00,55.8,41.7,30.12,NW,312,4.0,15.0,59,0.00,,,0.00,0,Wunderground v.1.15,2013-03-17 06:51:00,
2013-03-16 23:57:00,55.6,41.5,30.12,NNW,333,5.0,15.0,59,0.00,,,0.00,0,Wunderground v.1.15,2013-03-17 06:57:00,